sensor_id;sensor_type;location;lat;lon;timestamp;temperature;humidity
57434;DHT22;43277;52.672;6.984;2023-08-21T00:00:04;16.70;99.90
57434;DHT22;43277;52.672;6.984;2023-08-21T00:02:30;16.60;99.90
57434;DHT22;43277;52.672;6.984;2023-08-21T00:04:56;16.50;99.90
57434;DHT22;43277;52.672;6.984;2023-08-21T00:07:22;16.50;99.90
57434;DHT22;43277;52.672;6.984;2023-08-21T00:09:48;16.50;99.90
57434;DHT22;43277;52.672;6.984;2023-08-21T00:12:13;16.60;99.90
57434;DHT22;43277;52.672;6.984;2023-08-21T00:14:39;16.60;99.90
57434;DHT22;43277;52.672;6.984;2023-08-21T00:17:04;16.60;99.90
57434;DHT22;43277;52.672;6.984;2023-08-21T00:19:30;16.60;99.90
57434;DHT22;43277;52.672;6.984;2023-08-21T00:21:56;16.70;99.90
57434;DHT22;43277;52.672;6.984;2023-08-21T00:24:21;16.70;99.90
57434;DHT22;43277;52.672;6.984;2023-08-21T00:26:47;16.70;99.90
57434;DHT22;43277;52.672;6.984;2023-08-21T00:29:13;16.70;99.90
57434;DHT22;43277;52.672;6.984;2023-08-21T00:31:38;16.70;99.90
57434;DHT22;43277;52.672;6.984;2023-08-21T00:34:04;16.70;99.90
57434;DHT22;43277;52.672;6.984;2023-08-21T00:36:30;16.70;99.90
57434;DHT22;43277;52.672;6.984;2023-08-21T00:38:55;16.70;99.90
57434;DHT22;43277;52.672;6.984;2023-08-21T00:41:21;16.70;99.90
57434;DHT22;43277;52.672;6.984;2023-08-21T00:43:46;16.80;99.90
57434;DHT22;43277;52.672;6.984;2023-08-21T00:46:13;16.80;99.90
57434;DHT22;43277;52.672;6.984;2023-08-21T00:48:39;16.80;99.90
57434;DHT22;43277;52.672;6.984;2023-08-21T00:51:05;16.80;99.90
57434;DHT22;43277;52.672;6.984;2023-08-21T00:53:32;16.80;99.90
57434;DHT22;43277;52.672;6.984;2023-08-21T00:55:58;16.80;99.90
57434;DHT22;43277;52.672;6.984;2023-08-21T00:58:24;16.90;99.90
57434;DHT22;43277;52.672;6.984;2023-08-21T01:00:52;16.90;99.90
57434;DHT22;43277;52.672;6.984;2023-08-21T01:03:18;16.80;99.90
57434;DHT22;43277;52.672;6.984;2023-08-21T01:05:44;16.80;99.90
57434;DHT22;43277;52.672;6.984;2023-08-21T01:08:25;16.80;99.90
57434;DHT22;43277;52.672;6.984;2023-08-21T01:14:14;16.70;99.90
57434;DHT22;43277;52.672;6.984;2023-08-21T01:16:44;16.70;99.90
57434;DHT22;43277;52.672;6.984;2023-08-21T01:19:25;16.70;99.90
57434;DHT22;43277;52.672;6.984;2023-08-21T01:21:51;16.70;99.90
57434;DHT22;43277;52.672;6.984;2023-08-21T01:24:20;16.60;99.90
57434;DHT22;43277;52.672;6.984;2023-08-21T01:26:45;16.60;99.90
57434;DHT22;43277;52.672;6.984;2023-08-21T01:29:11;16.60;99.90
57434;DHT22;43277;52.672;6.984;2023-08-21T01:31:37;16.60;99.90
57434;DHT22;43277;52.672;6.984;2023-08-21T01:34:06;16.60;99.90
57434;DHT22;43277;52.672;6.984;2023-08-21T01:36:35;16.60;99.90
57434;DHT22;43277;52.672;6.984;2023-08-21T01:39:01;16.60;99.90
57434;DHT22;43277;52.672;6.984;2023-08-21T01:41:26;16.60;99.90
57434;DHT22;43277;52.672;6.984;2023-08-21T01:43:52;16.70;99.90
57434;DHT22;43277;52.672;6.984;2023-08-21T01:46:18;16.60;99.90
57434;DHT22;43277;52.672;6.984;2023-08-21T01:48:43;16.60;99.90
57434;DHT22;43277;52.672;6.984;2023-08-21T01:51:09;16.60;99.90
57434;DHT22;43277;52.672;6.984;2023-08-21T01:53:35;16.60;99.90
57434;DHT22;43277;52.672;6.984;2023-08-21T01:56:00;16.60;99.90
57434;DHT22;43277;52.672;6.984;2023-08-21T01:58:26;16.60;99.90
57434;DHT22;43277;52.672;6.984;2023-08-21T02:00:51;16.60;99.90
57434;DHT22;43277;52.672;6.984;2023-08-21T02:03:17;16.60;99.90
57434;DHT22;43277;52.672;6.984;2023-08-21T02:05:43;16.60;99.90
57434;DHT22;43277;52.672;6.984;2023-08-21T02:08:12;16.60;99.90
57434;DHT22;43277;52.672;6.984;2023-08-21T02:10:50;16.60;99.90
57434;DHT22;43277;52.672;6.984;2023-08-21T02:13:15;16.60;99.90
57434;DHT22;43277;52.672;6.984;2023-08-21T02:15:41;16.60;99.90
57434;DHT22;43277;52.672;6.984;2023-08-21T02:18:07;16.60;99.90
57434;DHT22;43277;52.672;6.984;2023-08-21T02:20:32;16.60;99.90
57434;DHT22;43277;52.672;6.984;2023-08-21T02:22:58;16.60;99.90
57434;DHT22;43277;52.672;6.984;2023-08-21T02:25:24;16.60;99.90
57434;DHT22;43277;52.672;6.984;2023-08-21T02:27:49;16.60;99.90
57434;DHT22;43277;52.672;6.984;2023-08-21T02:30:15;16.60;99.90
57434;DHT22;43277;52.672;6.984;2023-08-21T02:32:41;16.60;99.90
57434;DHT22;43277;52.672;6.984;2023-08-21T02:35:07;16.60;99.90
57434;DHT22;43277;52.672;6.984;2023-08-21T02:37:34;16.60;99.90
57434;DHT22;43277;52.672;6.984;2023-08-21T02:39:59;16.60;99.90
57434;DHT22;43277;52.672;6.984;2023-08-21T02:42:25;16.60;99.90
57434;DHT22;43277;52.672;6.984;2023-08-21T02:44:51;16.60;99.90
57434;DHT22;43277;52.672;6.984;2023-08-21T02:47:17;16.50;99.90
57434;DHT22;43277;52.672;6.984;2023-08-21T02:49:42;16.60;99.90
57434;DHT22;43277;52.672;6.984;2023-08-21T02:52:08;16.50;99.90
57434;DHT22;43277;52.672;6.984;2023-08-21T02:54:34;16.50;99.90
57434;DHT22;43277;52.672;6.984;2023-08-21T02:56:59;16.50;99.90
57434;DHT22;43277;52.672;6.984;2023-08-21T02:59:25;16.50;99.90
57434;DHT22;43277;52.672;6.984;2023-08-21T03:01:50;16.50;99.90
57434;DHT22;43277;52.672;6.984;2023-08-21T03:04:16;16.40;99.90
57434;DHT22;43277;52.672;6.984;2023-08-21T03:06:42;16.50;99.90
57434;DHT22;43277;52.672;6.984;2023-08-21T03:09:07;16.40;99.90
57434;DHT22;43277;52.672;6.984;2023-08-21T03:11:33;16.50;99.90
57434;DHT22;43277;52.672;6.984;2023-08-21T03:13:58;16.40;99.90
57434;DHT22;43277;52.672;6.984;2023-08-21T03:16:24;16.40;99.90
57434;DHT22;43277;52.672;6.984;2023-08-21T03:18:58;16.40;99.90
57434;DHT22;43277;52.672;6.984;2023-08-21T03:21:24;16.40;99.90
57434;DHT22;43277;52.672;6.984;2023-08-21T03:23:59;16.30;99.90
57434;DHT22;43277;52.672;6.984;2023-08-21T03:26:25;16.30;99.90
57434;DHT22;43277;52.672;6.984;2023-08-21T03:28:51;16.20;99.90
57434;DHT22;43277;52.672;6.984;2023-08-21T03:31:16;16.00;99.90
57434;DHT22;43277;52.672;6.984;2023-08-21T03:33:42;15.90;99.90
57434;DHT22;43277;52.672;6.984;2023-08-21T03:36:08;15.90;99.90
57434;DHT22;43277;52.672;6.984;2023-08-21T03:38:34;15.80;99.90
57434;DHT22;43277;52.672;6.984;2023-08-21T03:41:00;15.80;99.90
57434;DHT22;43277;52.672;6.984;2023-08-21T03:43:26;15.80;99.90
57434;DHT22;43277;52.672;6.984;2023-08-21T03:45:51;15.70;99.90
57434;DHT22;43277;52.672;6.984;2023-08-21T03:48:17;15.80;99.90
57434;DHT22;43277;52.672;6.984;2023-08-21T03:50:43;15.80;99.90
57434;DHT22;43277;52.672;6.984;2023-08-21T03:53:08;15.70;99.90
57434;DHT22;43277;52.672;6.984;2023-08-21T03:55:34;15.70;99.90
57434;DHT22;43277;52.672;6.984;2023-08-21T03:58:00;15.70;99.90
57434;DHT22;43277;52.672;6.984;2023-08-21T04:00:26;15.70;99.90
57434;DHT22;43277;52.672;6.984;2023-08-21T04:02:51;15.70;99.90
57434;DHT22;43277;52.672;6.984;2023-08-21T04:05:17;15.60;99.90
57434;DHT22;43277;52.672;6.984;2023-08-21T04:07:43;15.60;99.90
57434;DHT22;43277;52.672;6.984;2023-08-21T04:10:09;15.60;99.90
57434;DHT22;43277;52.672;6.984;2023-08-21T04:12:34;15.60;99.90
57434;DHT22;43277;52.672;6.984;2023-08-21T04:15:00;15.60;99.90
57434;DHT22;43277;52.672;6.984;2023-08-21T04:17:25;15.60;99.90
57434;DHT22;43277;52.672;6.984;2023-08-21T04:19:51;15.60;99.90
57434;DHT22;43277;52.672;6.984;2023-08-21T04:22:17;15.60;99.90
57434;DHT22;43277;52.672;6.984;2023-08-21T04:24:42;15.50;99.90
57434;DHT22;43277;52.672;6.984;2023-08-21T04:27:08;15.40;99.90
57434;DHT22;43277;52.672;6.984;2023-08-21T04:29:38;15.30;99.90
57434;DHT22;43277;52.672;6.984;2023-08-21T04:32:04;15.20;99.90
57434;DHT22;43277;52.672;6.984;2023-08-21T04:34:32;15.00;99.90
57434;DHT22;43277;52.672;6.984;2023-08-21T04:36:58;14.90;99.90
57434;DHT22;43277;52.672;6.984;2023-08-21T04:39:23;14.80;99.90
57434;DHT22;43277;52.672;6.984;2023-08-21T04:41:49;14.70;99.90
57434;DHT22;43277;52.672;6.984;2023-08-21T04:44:15;14.70;99.90
57434;DHT22;43277;52.672;6.984;2023-08-21T04:46:40;14.60;99.90
57434;DHT22;43277;52.672;6.984;2023-08-21T04:49:06;14.70;99.90
57434;DHT22;43277;52.672;6.984;2023-08-21T04:51:32;14.70;99.90
57434;DHT22;43277;52.672;6.984;2023-08-21T04:53:57;14.70;99.90
57434;DHT22;43277;52.672;6.984;2023-08-21T04:56:25;14.80;99.90
57434;DHT22;43277;52.672;6.984;2023-08-21T04:58:51;14.80;99.90
57434;DHT22;43277;52.672;6.984;2023-08-21T05:01:17;14.80;99.90
57434;DHT22;43277;52.672;6.984;2023-08-21T05:03:42;14.90;99.90
57434;DHT22;43277;52.672;6.984;2023-08-21T05:06:08;14.90;99.90
57434;DHT22;43277;52.672;6.984;2023-08-21T05:08:34;14.90;99.90
57434;DHT22;43277;52.672;6.984;2023-08-21T05:11:00;15.00;99.90
57434;DHT22;43277;52.672;6.984;2023-08-21T05:13:26;14.80;99.90
57434;DHT22;43277;52.672;6.984;2023-08-21T05:15:53;14.90;99.90
57434;DHT22;43277;52.672;6.984;2023-08-21T05:18:22;14.80;99.90
57434;DHT22;43277;52.672;6.984;2023-08-21T05:20:49;14.70;99.90
57434;DHT22;43277;52.672;6.984;2023-08-21T05:23:15;14.70;99.90
57434;DHT22;43277;52.672;6.984;2023-08-21T05:25:42;14.70;99.90
57434;DHT22;43277;52.672;6.984;2023-08-21T05:28:08;14.80;99.90
57434;DHT22;43277;52.672;6.984;2023-08-21T05:30:35;14.80;99.90
57434;DHT22;43277;52.672;6.984;2023-08-21T05:33:02;14.80;99.90
57434;DHT22;43277;52.672;6.984;2023-08-21T05:35:27;14.90;99.90
57434;DHT22;43277;52.672;6.984;2023-08-21T05:37:53;14.90;99.90
57434;DHT22;43277;52.672;6.984;2023-08-21T05:40:18;15.00;99.90
57434;DHT22;43277;52.672;6.984;2023-08-21T05:42:45;15.10;99.90
57434;DHT22;43277;52.672;6.984;2023-08-21T05:45:11;15.20;99.90
57434;DHT22;43277;52.672;6.984;2023-08-21T05:47:36;15.30;99.90
57434;DHT22;43277;52.672;6.984;2023-08-21T05:50:02;15.40;99.90
57434;DHT22;43277;52.672;6.984;2023-08-21T05:52:28;15.50;99.90
57434;DHT22;43277;52.672;6.984;2023-08-21T05:54:54;15.60;99.90
57434;DHT22;43277;52.672;6.984;2023-08-21T05:57:19;15.70;99.90
57434;DHT22;43277;52.672;6.984;2023-08-21T05:59:46;15.80;99.90
57434;DHT22;43277;52.672;6.984;2023-08-21T06:02:13;15.90;99.90
57434;DHT22;43277;52.672;6.984;2023-08-21T06:04:42;16.10;99.90
57434;DHT22;43277;52.672;6.984;2023-08-21T06:07:08;16.20;99.90
57434;DHT22;43277;52.672;6.984;2023-08-21T06:09:35;16.30;99.90
57434;DHT22;43277;52.672;6.984;2023-08-21T06:12:02;16.40;99.90
57434;DHT22;43277;52.672;6.984;2023-08-21T06:14:28;16.50;99.90
57434;DHT22;43277;52.672;6.984;2023-08-21T06:16:59;16.60;99.90
57434;DHT22;43277;52.672;6.984;2023-08-21T06:19:24;16.70;99.90
57434;DHT22;43277;52.672;6.984;2023-08-21T06:21:50;16.80;99.90
57434;DHT22;43277;52.672;6.984;2023-08-21T06:24:16;16.90;99.90
57434;DHT22;43277;52.672;6.984;2023-08-21T06:26:41;17.00;99.90
57434;DHT22;43277;52.672;6.984;2023-08-21T06:29:07;17.10;99.90
57434;DHT22;43277;52.672;6.984;2023-08-21T06:31:33;17.20;99.90
57434;DHT22;43277;52.672;6.984;2023-08-21T06:33:59;17.20;99.90
57434;DHT22;43277;52.672;6.984;2023-08-21T06:36:24;17.30;99.90
57434;DHT22;43277;52.672;6.984;2023-08-21T06:38:50;17.40;99.90
57434;DHT22;43277;52.672;6.984;2023-08-21T06:41:15;17.50;99.90
57434;DHT22;43277;52.672;6.984;2023-08-21T06:43:41;17.60;99.90
57434;DHT22;43277;52.672;6.984;2023-08-21T06:46:07;17.70;99.90
57434;DHT22;43277;52.672;6.984;2023-08-21T06:48:36;17.80;99.90
57434;DHT22;43277;52.672;6.984;2023-08-21T06:51:01;17.90;99.90
57434;DHT22;43277;52.672;6.984;2023-08-21T06:53:28;18.10;99.90
57434;DHT22;43277;52.672;6.984;2023-08-21T06:55:54;18.20;99.90
57434;DHT22;43277;52.672;6.984;2023-08-21T06:58:20;18.30;99.90
57434;DHT22;43277;52.672;6.984;2023-08-21T07:00:48;18.40;99.90
57434;DHT22;43277;52.672;6.984;2023-08-21T07:03:26;18.50;99.90
57434;DHT22;43277;52.672;6.984;2023-08-21T07:05:55;18.60;99.90
57434;DHT22;43277;52.672;6.984;2023-08-21T07:08:24;18.70;99.90
57434;DHT22;43277;52.672;6.984;2023-08-21T07:10:50;18.80;99.90
57434;DHT22;43277;52.672;6.984;2023-08-21T07:13:16;18.80;99.90
57434;DHT22;43277;52.672;6.984;2023-08-21T07:15:42;18.90;99.90
57434;DHT22;43277;52.672;6.984;2023-08-21T07:18:07;19.00;99.90
57434;DHT22;43277;52.672;6.984;2023-08-21T07:20:33;19.10;99.90
57434;DHT22;43277;52.672;6.984;2023-08-21T07:23:00;19.30;99.90
57434;DHT22;43277;52.672;6.984;2023-08-21T07:25:25;19.40;99.90
57434;DHT22;43277;52.672;6.984;2023-08-21T07:27:52;19.50;99.90
57434;DHT22;43277;52.672;6.984;2023-08-21T07:30:20;19.70;99.90
57434;DHT22;43277;52.672;6.984;2023-08-21T07:32:47;19.80;99.90
57434;DHT22;43277;52.672;6.984;2023-08-21T07:35:14;20.00;99.90
57434;DHT22;43277;52.672;6.984;2023-08-21T07:37:43;20.10;99.90
57434;DHT22;43277;52.672;6.984;2023-08-21T07:40:08;20.20;99.90
57434;DHT22;43277;52.672;6.984;2023-08-21T07:42:34;20.40;99.90
57434;DHT22;43277;52.672;6.984;2023-08-21T07:45:00;20.50;99.90
57434;DHT22;43277;52.672;6.984;2023-08-21T07:47:28;20.50;99.90
57434;DHT22;43277;52.672;6.984;2023-08-21T07:49:54;20.70;99.90
57434;DHT22;43277;52.672;6.984;2023-08-21T07:52:21;20.80;99.90
57434;DHT22;43277;52.672;6.984;2023-08-21T07:54:51;20.90;99.90
57434;DHT22;43277;52.672;6.984;2023-08-21T07:57:17;21.00;99.90
57434;DHT22;43277;52.672;6.984;2023-08-21T07:59:43;21.00;99.90
57434;DHT22;43277;52.672;6.984;2023-08-21T08:02:09;21.00;99.90
57434;DHT22;43277;52.672;6.984;2023-08-21T08:04:37;21.10;99.90
57434;DHT22;43277;52.672;6.984;2023-08-21T08:07:02;21.20;99.90
57434;DHT22;43277;52.672;6.984;2023-08-21T08:09:28;21.30;99.90
57434;DHT22;43277;52.672;6.984;2023-08-21T08:11:54;21.40;99.90
57434;DHT22;43277;52.672;6.984;2023-08-21T08:14:19;21.40;99.90
57434;DHT22;43277;52.672;6.984;2023-08-21T08:16:45;21.50;99.90
57434;DHT22;43277;52.672;6.984;2023-08-21T08:19:11;21.50;99.90
57434;DHT22;43277;52.672;6.984;2023-08-21T08:21:36;21.60;99.90
57434;DHT22;43277;52.672;6.984;2023-08-21T08:24:02;21.70;99.90
57434;DHT22;43277;52.672;6.984;2023-08-21T08:26:28;21.80;99.90
57434;DHT22;43277;52.672;6.984;2023-08-21T08:28:53;22.00;99.90
57434;DHT22;43277;52.672;6.984;2023-08-21T08:31:20;22.10;99.90
57434;DHT22;43277;52.672;6.984;2023-08-21T08:33:46;22.30;99.90
57434;DHT22;43277;52.672;6.984;2023-08-21T08:36:13;22.30;99.90
57434;DHT22;43277;52.672;6.984;2023-08-21T08:38:39;22.40;99.90
57434;DHT22;43277;52.672;6.984;2023-08-21T08:41:13;22.50;99.90
57434;DHT22;43277;52.672;6.984;2023-08-21T08:43:40;22.50;99.90
57434;DHT22;43277;52.672;6.984;2023-08-21T08:46:08;22.60;99.90
57434;DHT22;43277;52.672;6.984;2023-08-21T08:48:35;22.80;99.90
57434;DHT22;43277;52.672;6.984;2023-08-21T08:51:02;22.90;99.90
57434;DHT22;43277;52.672;6.984;2023-08-21T08:53:32;23.20;99.90
57434;DHT22;43277;52.672;6.984;2023-08-21T08:55:58;23.30;99.90
57434;DHT22;43277;52.672;6.984;2023-08-21T08:58:24;23.40;99.90
57434;DHT22;43277;52.672;6.984;2023-08-21T09:00:50;23.50;99.90
57434;DHT22;43277;52.672;6.984;2023-08-21T09:03:16;23.60;99.90
57434;DHT22;43277;52.672;6.984;2023-08-21T09:05:42;23.60;99.90
57434;DHT22;43277;52.672;6.984;2023-08-21T09:08:11;23.60;99.90
57434;DHT22;43277;52.672;6.984;2023-08-21T09:10:38;23.60;99.90
57434;DHT22;43277;52.672;6.984;2023-08-21T09:13:15;23.70;99.90
57434;DHT22;43277;52.672;6.984;2023-08-21T09:15:43;23.80;99.90
57434;DHT22;43277;52.672;6.984;2023-08-21T09:18:10;24.00;99.90
57434;DHT22;43277;52.672;6.984;2023-08-21T09:20:37;24.10;99.90
57434;DHT22;43277;52.672;6.984;2023-08-21T09:23:03;24.30;99.90
57434;DHT22;43277;52.672;6.984;2023-08-21T09:25:34;24.40;99.90
57434;DHT22;43277;52.672;6.984;2023-08-21T09:28:04;24.60;99.90
57434;DHT22;43277;52.672;6.984;2023-08-21T09:30:30;24.70;99.90
57434;DHT22;43277;52.672;6.984;2023-08-21T09:32:57;24.80;99.90
57434;DHT22;43277;52.672;6.984;2023-08-21T09:35:25;24.90;99.90
57434;DHT22;43277;52.672;6.984;2023-08-21T09:37:52;24.90;99.50
57434;DHT22;43277;52.672;6.984;2023-08-21T09:40:21;25.10;98.20
57434;DHT22;43277;52.672;6.984;2023-08-21T09:42:55;25.20;98.50
57434;DHT22;43277;52.672;6.984;2023-08-21T09:45:22;25.30;98.40
57434;DHT22;43277;52.672;6.984;2023-08-21T09:47:49;25.40;99.00
57434;DHT22;43277;52.672;6.984;2023-08-21T09:50:15;25.60;98.30
57434;DHT22;43277;52.672;6.984;2023-08-21T09:52:41;25.80;98.40
57434;DHT22;43277;52.672;6.984;2023-08-21T09:55:07;25.90;98.10
57434;DHT22;43277;52.672;6.984;2023-08-21T09:57:35;26.00;97.50
57434;DHT22;43277;52.672;6.984;2023-08-21T10:00:02;26.20;97.30
57434;DHT22;43277;52.672;6.984;2023-08-21T10:02:40;26.30;96.90
57434;DHT22;43277;52.672;6.984;2023-08-21T10:05:06;26.50;96.80
57434;DHT22;43277;52.672;6.984;2023-08-21T10:07:33;26.60;96.80
57434;DHT22;43277;52.672;6.984;2023-08-21T10:09:59;26.80;95.60
57434;DHT22;43277;52.672;6.984;2023-08-21T10:12:26;26.80;95.00
57434;DHT22;43277;52.672;6.984;2023-08-21T10:14:52;27.00;93.80
57434;DHT22;43277;52.672;6.984;2023-08-21T10:17:18;27.00;93.40
57434;DHT22;43277;52.672;6.984;2023-08-21T10:19:51;27.10;93.60
57434;DHT22;43277;52.672;6.984;2023-08-21T10:25:27;27.20;93.50
57434;DHT22;43277;52.672;6.984;2023-08-21T10:27:56;27.20;93.40
57434;DHT22;43277;52.672;6.984;2023-08-21T10:30:23;27.30;93.10
57434;DHT22;43277;52.672;6.984;2023-08-21T10:32:51;27.30;92.70
57434;DHT22;43277;52.672;6.984;2023-08-21T10:35:22;27.40;92.20
57434;DHT22;43277;52.672;6.984;2023-08-21T10:38:13;27.50;90.40
57434;DHT22;43277;52.672;6.984;2023-08-21T10:41:03;27.50;90.00
57434;DHT22;43277;52.672;6.984;2023-08-21T10:43:40;27.40;91.10
57434;DHT22;43277;52.672;6.984;2023-08-21T10:46:07;27.40;91.80
57434;DHT22;43277;52.672;6.984;2023-08-21T10:48:33;27.50;88.50
57434;DHT22;43277;52.672;6.984;2023-08-21T10:51:05;27.40;91.30
57434;DHT22;43277;52.672;6.984;2023-08-21T10:53:31;27.40;88.80
57434;DHT22;43277;52.672;6.984;2023-08-21T10:56:02;27.40;90.20
57434;DHT22;43277;52.672;6.984;2023-08-21T10:58:28;27.50;89.90
57434;DHT22;43277;52.672;6.984;2023-08-21T11:01:00;27.60;84.60
57434;DHT22;43277;52.672;6.984;2023-08-21T11:03:26;27.50;83.30
57434;DHT22;43277;52.672;6.984;2023-08-21T11:06:04;27.40;79.40
57434;DHT22;43277;52.672;6.984;2023-08-21T11:08:32;27.30;80.90
57434;DHT22;43277;52.672;6.984;2023-08-21T11:10:58;27.30;83.70
57434;DHT22;43277;52.672;6.984;2023-08-21T11:13:24;27.40;82.20
57434;DHT22;43277;52.672;6.984;2023-08-21T11:15:58;27.50;82.40
57434;DHT22;43277;52.672;6.984;2023-08-21T11:18:30;27.60;83.80
57434;DHT22;43277;52.672;6.984;2023-08-21T11:21:03;27.70;82.20
57434;DHT22;43277;52.672;6.984;2023-08-21T11:23:33;27.90;79.30
57434;DHT22;43277;52.672;6.984;2023-08-21T11:26:00;27.90;77.80
57434;DHT22;43277;52.672;6.984;2023-08-21T11:28:28;27.80;77.20
57434;DHT22;43277;52.672;6.984;2023-08-21T11:30:55;27.80;78.50
57434;DHT22;43277;52.672;6.984;2023-08-21T11:33:21;27.80;76.50
57434;DHT22;43277;52.672;6.984;2023-08-21T11:35:46;27.80;79.80
57434;DHT22;43277;52.672;6.984;2023-08-21T11:38:23;28.00;83.10
57434;DHT22;43277;52.672;6.984;2023-08-21T11:40:53;28.30;87.70
57434;DHT22;43277;52.672;6.984;2023-08-21T11:43:19;28.40;82.00
57434;DHT22;43277;52.672;6.984;2023-08-21T11:45:47;28.60;76.30
57434;DHT22;43277;52.672;6.984;2023-08-21T11:48:13;28.50;77.10
57434;DHT22;43277;52.672;6.984;2023-08-21T11:50:40;28.60;78.20
57434;DHT22;43277;52.672;6.984;2023-08-21T11:53:05;28.80;77.50
57434;DHT22;43277;52.672;6.984;2023-08-21T11:55:31;28.90;75.80
57434;DHT22;43277;52.672;6.984;2023-08-21T11:57:57;29.00;75.30
57434;DHT22;43277;52.672;6.984;2023-08-21T12:00:29;28.90;75.10
57434;DHT22;43277;52.672;6.984;2023-08-21T12:02:56;29.00;76.90
57434;DHT22;43277;52.672;6.984;2023-08-21T12:05:22;29.30;74.80
57434;DHT22;43277;52.672;6.984;2023-08-21T12:07:48;29.30;74.70
57434;DHT22;43277;52.672;6.984;2023-08-21T12:10:13;29.30;81.00
57434;DHT22;43277;52.672;6.984;2023-08-21T12:12:39;29.40;80.00
57434;DHT22;43277;52.672;6.984;2023-08-21T12:15:05;29.50;78.90
57434;DHT22;43277;52.672;6.984;2023-08-21T12:17:31;29.60;76.40
57434;DHT22;43277;52.672;6.984;2023-08-21T12:19:56;29.80;76.50
57434;DHT22;43277;52.672;6.984;2023-08-21T12:22:22;30.00;75.40
57434;DHT22;43277;52.672;6.984;2023-08-21T12:24:48;29.90;78.40
57434;DHT22;43277;52.672;6.984;2023-08-21T12:27:13;29.90;76.70
57434;DHT22;43277;52.672;6.984;2023-08-21T12:29:39;30.00;79.30
57434;DHT22;43277;52.672;6.984;2023-08-21T12:32:05;30.10;83.30
57434;DHT22;43277;52.672;6.984;2023-08-21T12:34:30;30.10;81.10
57434;DHT22;43277;52.672;6.984;2023-08-21T12:36:56;30.20;75.60
57434;DHT22;43277;52.672;6.984;2023-08-21T12:39:22;30.10;77.60
57434;DHT22;43277;52.672;6.984;2023-08-21T12:41:47;30.10;83.80
57434;DHT22;43277;52.672;6.984;2023-08-21T12:44:14;30.30;76.30
57434;DHT22;43277;52.672;6.984;2023-08-21T12:46:40;30.10;74.90
57434;DHT22;43277;52.672;6.984;2023-08-21T12:49:06;29.80;73.50
57434;DHT22;43277;52.672;6.984;2023-08-21T12:51:32;29.30;78.40
57434;DHT22;43277;52.672;6.984;2023-08-21T12:53:58;28.90;85.40
57434;DHT22;43277;52.672;6.984;2023-08-21T12:56:24;28.60;82.90
57434;DHT22;43277;52.672;6.984;2023-08-21T12:58:49;28.40;88.80
57434;DHT22;43277;52.672;6.984;2023-08-21T13:01:15;28.30;90.30
57434;DHT22;43277;52.672;6.984;2023-08-21T13:03:47;28.10;90.60
57434;DHT22;43277;52.672;6.984;2023-08-21T13:06:13;27.90;90.80
57434;DHT22;43277;52.672;6.984;2023-08-21T13:08:39;27.80;83.70
57434;DHT22;43277;52.672;6.984;2023-08-21T13:11:05;28.00;81.10
57434;DHT22;43277;52.672;6.984;2023-08-21T13:13:31;27.80;88.40
57434;DHT22;43277;52.672;6.984;2023-08-21T13:15:57;27.70;91.30
57434;DHT22;43277;52.672;6.984;2023-08-21T13:18:24;27.60;92.00
57434;DHT22;43277;52.672;6.984;2023-08-21T13:20:49;27.70;92.40
57434;DHT22;43277;52.672;6.984;2023-08-21T13:23:15;27.80;92.50
57434;DHT22;43277;52.672;6.984;2023-08-21T13:25:41;27.70;91.20
57434;DHT22;43277;52.672;6.984;2023-08-21T13:28:06;27.70;89.50
57434;DHT22;43277;52.672;6.984;2023-08-21T13:30:32;27.70;88.30
57434;DHT22;43277;52.672;6.984;2023-08-21T13:32:58;27.70;81.50
57434;DHT22;43277;52.672;6.984;2023-08-21T13:35:24;27.70;82.90
57434;DHT22;43277;52.672;6.984;2023-08-21T13:37:50;27.90;81.10
57434;DHT22;43277;52.672;6.984;2023-08-21T13:40:16;28.20;79.90
57434;DHT22;43277;52.672;6.984;2023-08-21T13:42:46;28.60;82.10
57434;DHT22;43277;52.672;6.984;2023-08-21T13:45:13;29.10;79.10
57434;DHT22;43277;52.672;6.984;2023-08-21T13:47:43;29.50;74.90
57434;DHT22;43277;52.672;6.984;2023-08-21T13:50:10;29.50;75.40
57434;DHT22;43277;52.672;6.984;2023-08-21T13:52:36;29.70;75.90
57434;DHT22;43277;52.672;6.984;2023-08-21T13:55:02;29.80;74.20
57434;DHT22;43277;52.672;6.984;2023-08-21T13:57:28;29.90;71.90
57434;DHT22;43277;52.672;6.984;2023-08-21T13:59:54;30.10;72.00
57434;DHT22;43277;52.672;6.984;2023-08-21T14:02:20;30.20;68.80
57434;DHT22;43277;52.672;6.984;2023-08-21T14:04:46;30.40;70.20
57434;DHT22;43277;52.672;6.984;2023-08-21T14:07:12;30.60;70.80
57434;DHT22;43277;52.672;6.984;2023-08-21T14:09:38;30.90;68.90
57434;DHT22;43277;52.672;6.984;2023-08-21T14:12:04;30.90;75.40
57434;DHT22;43277;52.672;6.984;2023-08-21T14:14:30;31.10;72.90
57434;DHT22;43277;52.672;6.984;2023-08-21T14:16:56;31.20;66.00
57434;DHT22;43277;52.672;6.984;2023-08-21T14:19:24;31.20;64.80
57434;DHT22;43277;52.672;6.984;2023-08-21T14:21:49;31.30;73.30
57434;DHT22;43277;52.672;6.984;2023-08-21T14:24:15;31.30;76.10
57434;DHT22;43277;52.672;6.984;2023-08-21T14:26:41;31.30;76.40
57434;DHT22;43277;52.672;6.984;2023-08-21T14:29:07;31.50;78.60
57434;DHT22;43277;52.672;6.984;2023-08-21T14:31:33;31.60;77.30
57434;DHT22;43277;52.672;6.984;2023-08-21T14:33:59;31.50;76.30
57434;DHT22;43277;52.672;6.984;2023-08-21T14:36:25;31.30;76.80
57434;DHT22;43277;52.672;6.984;2023-08-21T14:38:50;31.30;77.20
57434;DHT22;43277;52.672;6.984;2023-08-21T14:41:16;31.50;76.20
57434;DHT22;43277;52.672;6.984;2023-08-21T14:43:43;31.70;76.10
57434;DHT22;43277;52.672;6.984;2023-08-21T14:46:09;31.80;75.30
57434;DHT22;43277;52.672;6.984;2023-08-21T14:48:36;31.90;76.00
57434;DHT22;43277;52.672;6.984;2023-08-21T14:51:02;31.90;77.40
57434;DHT22;43277;52.672;6.984;2023-08-21T14:53:27;32.20;75.90
57434;DHT22;43277;52.672;6.984;2023-08-21T14:55:53;32.60;74.80
57434;DHT22;43277;52.672;6.984;2023-08-21T14:58:18;33.30;68.80
57434;DHT22;43277;52.672;6.984;2023-08-21T15:00:44;33.60;69.20
57434;DHT22;43277;52.672;6.984;2023-08-21T15:03:10;33.00;65.00
57434;DHT22;43277;52.672;6.984;2023-08-21T15:05:35;32.40;70.50
57434;DHT22;43277;52.672;6.984;2023-08-21T15:08:01;32.90;72.90
57434;DHT22;43277;52.672;6.984;2023-08-21T15:10:27;33.30;72.80
57434;DHT22;43277;52.672;6.984;2023-08-21T15:12:55;33.50;69.80
57434;DHT22;43277;52.672;6.984;2023-08-21T15:15:21;33.80;70.30
57434;DHT22;43277;52.672;6.984;2023-08-21T15:17:47;34.30;69.20
57434;DHT22;43277;52.672;6.984;2023-08-21T15:20:13;33.90;68.90
57434;DHT22;43277;52.672;6.984;2023-08-21T15:22:41;33.30;69.80
57434;DHT22;43277;52.672;6.984;2023-08-21T15:25:08;33.20;68.70
57434;DHT22;43277;52.672;6.984;2023-08-21T15:27:34;33.30;67.90
57434;DHT22;43277;52.672;6.984;2023-08-21T15:30:00;33.60;66.60
57434;DHT22;43277;52.672;6.984;2023-08-21T15:32:25;34.10;65.70